Accueil
METAR-TAF:

METAR-TAF

Aéroports :

Base aérienne 156 Bizerte Sidi Ahmed

Bizerte, Tunisie

latitude: 37-15N, longitude: 009-48E, altitude: 5 m

Observation

Le bulletin a été fait il y a 47 minutes, à 14:00 UTC
Vent 15 kt de ouest
Température 16°C
Humidité 63%
Pression 1019 hPa
Visibilité 10 km ou plus
Quelques nuages à une hauteur de 2000 ft

METAR: DTTB 261400Z 26015KT 9999 FEW020 16/09 Q1019

Heure: 15:47 (14:47 UTC)

Prévision

Le bulletin a été fait il y a 2 heures et 47 minutes, à 12:00 UTC
Prévision valable du 26 à 13 UTC au 26 à 22 UTC
Vent 10 kt de ouest/sud-ouest avec des rafales jusqu'à 20 kt
Visibilité 10 km ou plus
Quelques nuages à une hauteur de 2000 ft
Probabilité 40%
du 26 à 16 UTC au 26 à 19 UTC
Visibilité: 4000 m
Quelques nuages à une hauteur de 2600 ft, Cumulonimbus.
orage, pluie faible

TAF: DTTB 261200Z 2613/2622 25010G20KT 9999 FEW020 PROB40 2616/2619 4000 -TSRA FEW026CB

Observations et prévisions météorologiques de plus de 4000 aéroports (messages METAR et TAF).

Les stations disponibles sont représentées par des disques jaunes et rouges sur la carte.

Passer la souris dessus pour voir le nom de la station.

Cliquer dessus pour voir les observations et prévisions météorologiques.

Pour changer de carte: cliquez sur les boutons verts avec une croix noire pour zoomer, sur le bouton vert avec un tiret pour effectuer un zoom arrière, ou sur les flèches vertes pour les cartes adjacentes.


METAR-TAF: